sensor_id;sensor_type;location;lat;lon;timestamp;P1;durP1;ratioP1;P2;durP2;ratioP2
44824;SDS011;30542;47.928;2.138;2022-12-01T00:02:27;4.33;;;2.90;;
44824;SDS011;30542;47.928;2.138;2022-12-01T00:07:28;6.60;;;3.60;;
44824;SDS011;30542;47.928;2.138;2022-12-01T00:12:28;4.53;;;2.70;;
44824;SDS011;30542;47.928;2.138;2022-12-01T00:17:29;5.07;;;3.17;;
44824;SDS011;30542;47.928;2.138;2022-12-01T00:22:29;4.47;;;3.10;;
44824;SDS011;30542;47.928;2.138;2022-12-01T00:27:29;5.27;;;3.47;;
44824;SDS011;30542;47.928;2.138;2022-12-01T00:32:30;4.77;;;2.80;;
44824;SDS011;30542;47.928;2.138;2022-12-01T00:37:31;4.22;;;2.78;;
44824;SDS011;30542;47.928;2.138;2022-12-01T00:42:33;3.63;;;2.63;;
44824;SDS011;30542;47.928;2.138;2022-12-01T00:47:33;5.03;;;2.55;;
44824;SDS011;30542;47.928;2.138;2022-12-01T00:52:33;4.97;;;3.23;;
44824;SDS011;30542;47.928;2.138;2022-12-01T00:57:34;3.40;;;2.60;;
44824;SDS011;30542;47.928;2.138;2022-12-01T01:02:34;3.63;;;3.17;;
44824;SDS011;30542;47.928;2.138;2022-12-01T01:07:39;3.58;;;3.00;;
44824;SDS011;30542;47.928;2.138;2022-12-01T01:12:39;3.03;;;2.63;;
44824;SDS011;30542;47.928;2.138;2022-12-01T01:17:39;5.00;;;3.63;;
44824;SDS011;30542;47.928;2.138;2022-12-01T01:22:40;3.55;;;2.65;;
44824;SDS011;30542;47.928;2.138;2022-12-01T01:27:40;3.93;;;3.00;;
44824;SDS011;30542;47.928;2.138;2022-12-01T01:32:40;4.70;;;3.57;;
44824;SDS011;30542;47.928;2.138;2022-12-01T01:37:41;4.67;;;2.87;;
44824;SDS011;30542;47.928;2.138;2022-12-01T01:42:41;3.63;;;3.23;;
44824;SDS011;30542;47.928;2.138;2022-12-01T01:47:41;2.47;;;2.20;;
44824;SDS011;30542;47.928;2.138;2022-12-01T01:52:43;4.67;;;3.03;;
44824;SDS011;30542;47.928;2.138;2022-12-01T01:57:47;2.75;;;2.45;;
44824;SDS011;30542;47.928;2.138;2022-12-01T02:02:48;3.33;;;2.58;;
44824;SDS011;30542;47.928;2.138;2022-12-01T02:07:50;4.45;;;3.35;;
44824;SDS011;30542;47.928;2.138;2022-12-01T02:29:21;3.25;;;2.78;;
44824;SDS011;30542;47.928;2.138;2022-12-01T02:34:53;3.35;;;2.58;;
44824;SDS011;30542;47.928;2.138;2022-12-01T02:40:05;3.25;;;2.95;;
44824;SDS011;30542;47.928;2.138;2022-12-01T02:51:12;3.20;;;2.88;;
44824;SDS011;30542;47.928;2.138;2022-12-01T02:56:19;3.53;;;3.22;;
44824;SDS011;30542;47.928;2.138;2022-12-01T03:11:40;3.22;;;2.95;;
44824;SDS011;30542;47.928;2.138;2022-12-01T03:17:06;2.60;;;2.40;;
44824;SDS011;30542;47.928;2.138;2022-12-01T03:22:11;3.95;;;3.33;;
44824;SDS011;30542;47.928;2.138;2022-12-01T03:27:17;3.67;;;3.05;;
44824;SDS011;30542;47.928;2.138;2022-12-01T03:32:54;2.78;;;2.58;;
44824;SDS011;30542;47.928;2.138;2022-12-01T03:38:11;2.83;;;2.55;;
44824;SDS011;30542;47.928;2.138;2022-12-01T03:43:20;2.75;;;2.50;;
44824;SDS011;30542;47.928;2.138;2022-12-01T03:48:25;2.75;;;2.55;;
44824;SDS011;30542;47.928;2.138;2022-12-01T03:53:26;3.22;;;2.92;;
44824;SDS011;30542;47.928;2.138;2022-12-01T03:58:41;4.18;;;3.25;;
44824;SDS011;30542;47.928;2.138;2022-12-01T04:03:44;3.03;;;2.70;;
44824;SDS011;30542;47.928;2.138;2022-12-01T04:08:45;3.38;;;2.95;;
44824;SDS011;30542;47.928;2.138;2022-12-01T04:13:46;3.77;;;2.63;;
44824;SDS011;30542;47.928;2.138;2022-12-01T04:18:46;3.20;;;2.90;;
44824;SDS011;30542;47.928;2.138;2022-12-01T04:23:46;3.07;;;2.87;;
44824;SDS011;30542;47.928;2.138;2022-12-01T04:28:59;3.10;;;2.80;;
44824;SDS011;30542;47.928;2.138;2022-12-01T04:34:04;3.00;;;2.70;;
44824;SDS011;30542;47.928;2.138;2022-12-01T04:39:05;3.03;;;2.75;;
44824;SDS011;30542;47.928;2.138;2022-12-01T04:44:05;3.47;;;2.60;;
44824;SDS011;30542;47.928;2.138;2022-12-01T04:49:06;2.67;;;2.45;;
44824;SDS011;30542;47.928;2.138;2022-12-01T04:54:06;3.57;;;3.27;;
44824;SDS011;30542;47.928;2.138;2022-12-01T04:59:07;3.50;;;3.20;;
44824;SDS011;30542;47.928;2.138;2022-12-01T05:04:09;3.03;;;2.80;;
44824;SDS011;30542;47.928;2.138;2022-12-01T05:09:12;2.53;;;2.33;;
44824;SDS011;30542;47.928;2.138;2022-12-01T05:14:14;2.67;;;2.47;;
44824;SDS011;30542;47.928;2.138;2022-12-01T05:19:14;3.47;;;3.17;;
44824;SDS011;30542;47.928;2.138;2022-12-01T05:24:41;3.25;;;2.95;;
44824;SDS011;30542;47.928;2.138;2022-12-01T05:29:41;2.73;;;2.53;;
44824;SDS011;30542;47.928;2.138;2022-12-01T05:34:41;3.27;;;2.97;;
44824;SDS011;30542;47.928;2.138;2022-12-01T05:39:42;3.13;;;2.80;;
44824;SDS011;30542;47.928;2.138;2022-12-01T05:44:42;2.73;;;2.53;;
44824;SDS011;30542;47.928;2.138;2022-12-01T05:49:42;2.77;;;2.57;;
44824;SDS011;30542;47.928;2.138;2022-12-01T05:54:43;2.87;;;2.40;;
44824;SDS011;30542;47.928;2.138;2022-12-01T05:59:43;3.47;;;3.10;;
44824;SDS011;30542;47.928;2.138;2022-12-01T06:04:43;5.13;;;3.60;;
44824;SDS011;30542;47.928;2.138;2022-12-01T06:09:44;7.13;;;3.67;;
44824;SDS011;30542;47.928;2.138;2022-12-01T06:14:45;6.20;;;3.38;;
44824;SDS011;30542;47.928;2.138;2022-12-01T06:19:45;8.00;;;4.47;;
44824;SDS011;30542;47.928;2.138;2022-12-01T06:24:46;6.38;;;3.60;;
44824;SDS011;30542;47.928;2.138;2022-12-01T06:29:47;7.07;;;3.63;;
44824;SDS011;30542;47.928;2.138;2022-12-01T06:34:48;4.93;;;3.70;;
44824;SDS011;30542;47.928;2.138;2022-12-01T06:39:48;4.17;;;2.80;;
44824;SDS011;30542;47.928;2.138;2022-12-01T06:44:49;7.33;;;4.73;;
44824;SDS011;30542;47.928;2.138;2022-12-01T06:49:49;9.33;;;5.70;;
44824;SDS011;30542;47.928;2.138;2022-12-01T06:54:49;9.70;;;4.97;;
44824;SDS011;30542;47.928;2.138;2022-12-01T06:59:50;16.20;;;5.73;;
44824;SDS011;30542;47.928;2.138;2022-12-01T07:04:50;14.30;;;6.23;;
44824;SDS011;30542;47.928;2.138;2022-12-01T07:09:50;11.80;;;6.10;;
44824;SDS011;30542;47.928;2.138;2022-12-01T07:14:51;10.63;;;5.57;;
44824;SDS011;30542;47.928;2.138;2022-12-01T07:19:51;8.57;;;5.30;;
44824;SDS011;30542;47.928;2.138;2022-12-01T07:24:51;12.07;;;5.53;;
44824;SDS011;30542;47.928;2.138;2022-12-01T07:29:52;10.73;;;5.33;;
44824;SDS011;30542;47.928;2.138;2022-12-01T07:34:52;11.83;;;5.57;;
44824;SDS011;30542;47.928;2.138;2022-12-01T07:39:52;8.77;;;5.10;;
44824;SDS011;30542;47.928;2.138;2022-12-01T07:44:53;8.33;;;5.63;;
44824;SDS011;30542;47.928;2.138;2022-12-01T07:49:53;9.10;;;6.23;;
44824;SDS011;30542;47.928;2.138;2022-12-01T07:54:54;8.77;;;5.55;;
44824;SDS011;30542;47.928;2.138;2022-12-01T07:59:54;11.00;;;6.03;;
44824;SDS011;30542;47.928;2.138;2022-12-01T08:04:55;10.03;;;5.37;;
44824;SDS011;30542;47.928;2.138;2022-12-01T08:09:55;11.27;;;5.77;;
44824;SDS011;30542;47.928;2.138;2022-12-01T08:14:55;11.83;;;6.50;;
44824;SDS011;30542;47.928;2.138;2022-12-01T08:19:56;10.50;;;6.70;;
44824;SDS011;30542;47.928;2.138;2022-12-01T08:24:56;14.70;;;9.63;;
44824;SDS011;30542;47.928;2.138;2022-12-01T08:29:56;11.97;;;9.30;;
44824;SDS011;30542;47.928;2.138;2022-12-01T08:34:57;14.93;;;8.03;;
44824;SDS011;30542;47.928;2.138;2022-12-01T08:39:57;14.00;;;8.07;;
44824;SDS011;30542;47.928;2.138;2022-12-01T08:44:57;13.33;;;7.33;;
44824;SDS011;30542;47.928;2.138;2022-12-01T08:49:58;9.80;;;6.70;;
44824;SDS011;30542;47.928;2.138;2022-12-01T08:54:59;11.30;;;6.57;;
44824;SDS011;30542;47.928;2.138;2022-12-01T08:59:59;13.55;;;6.28;;
44824;SDS011;30542;47.928;2.138;2022-12-01T09:05:00;9.67;;;6.80;;
44824;SDS011;30542;47.928;2.138;2022-12-01T09:10:00;9.75;;;5.95;;
44824;SDS011;30542;47.928;2.138;2022-12-01T09:15:01;12.30;;;5.90;;
44824;SDS011;30542;47.928;2.138;2022-12-01T09:20:01;12.43;;;6.27;;
44824;SDS011;30542;47.928;2.138;2022-12-01T09:25:02;8.73;;;5.85;;
44824;SDS011;30542;47.928;2.138;2022-12-01T09:30:03;10.45;;;6.10;;
44824;SDS011;30542;47.928;2.138;2022-12-01T09:35:04;14.07;;;5.85;;
44824;SDS011;30542;47.928;2.138;2022-12-01T09:40:04;13.57;;;6.10;;
44824;SDS011;30542;47.928;2.138;2022-12-01T09:45:05;9.00;;;5.10;;
44824;SDS011;30542;47.928;2.138;2022-12-01T09:50:14;9.20;;;6.18;;
44824;SDS011;30542;47.928;2.138;2022-12-01T09:55:20;9.48;;;5.18;;
44824;SDS011;30542;47.928;2.138;2022-12-01T10:00:23;10.32;;;5.22;;
44824;SDS011;30542;47.928;2.138;2022-12-01T10:05:30;6.80;;;5.10;;
44824;SDS011;30542;47.928;2.138;2022-12-01T10:10:48;9.82;;;5.00;;
44824;SDS011;30542;47.928;2.138;2022-12-01T10:31:20;8.98;;;5.75;;
44824;SDS011;30542;47.928;2.138;2022-12-01T10:36:27;8.30;;;5.95;;
44824;SDS011;30542;47.928;2.138;2022-12-01T10:41:32;5.93;;;5.25;;
44824;SDS011;30542;47.928;2.138;2022-12-01T10:46:40;9.82;;;6.18;;
44824;SDS011;30542;47.928;2.138;2022-12-01T10:51:51;6.97;;;6.28;;
44824;SDS011;30542;47.928;2.138;2022-12-01T10:56:56;8.95;;;5.68;;
44824;SDS011;30542;47.928;2.138;2022-12-01T11:01:57;11.52;;;7.13;;
44824;SDS011;30542;47.928;2.138;2022-12-01T11:06:59;10.38;;;6.75;;
44824;SDS011;30542;47.928;2.138;2022-12-01T11:12:01;10.07;;;6.90;;
44824;SDS011;30542;47.928;2.138;2022-12-01T11:17:25;11.65;;;7.18;;
44824;SDS011;30542;47.928;2.138;2022-12-01T11:22:30;9.60;;;7.28;;
44824;SDS011;30542;47.928;2.138;2022-12-01T11:27:34;9.13;;;6.90;;
44824;SDS011;30542;47.928;2.138;2022-12-01T11:32:49;9.35;;;6.45;;
44824;SDS011;30542;47.928;2.138;2022-12-01T11:37:56;8.10;;;7.13;;
44824;SDS011;30542;47.928;2.138;2022-12-01T11:42:59;9.75;;;6.15;;
44824;SDS011;30542;47.928;2.138;2022-12-01T11:58:34;7.70;;;5.80;;
44824;SDS011;30542;47.928;2.138;2022-12-01T12:03:37;8.07;;;6.53;;
44824;SDS011;30542;47.928;2.138;2022-12-01T12:14:07;6.43;;;5.82;;
44824;SDS011;30542;47.928;2.138;2022-12-01T12:56:21;7.03;;;6.20;;
44824;SDS011;30542;47.928;2.138;2022-12-01T13:01:38;5.95;;;5.45;;
44824;SDS011;30542;47.928;2.138;2022-12-01T13:12:00;6.38;;;5.45;;
44824;SDS011;30542;47.928;2.138;2022-12-01T13:22:31;6.70;;;6.00;;
44824;SDS011;30542;47.928;2.138;2022-12-01T13:27:34;6.68;;;5.95;;
44824;SDS011;30542;47.928;2.138;2022-12-01T13:32:39;6.65;;;6.05;;
44824;SDS011;30542;47.928;2.138;2022-12-01T13:37:41;5.93;;;5.38;;
44824;SDS011;30542;47.928;2.138;2022-12-01T13:42:42;6.32;;;5.30;;
44824;SDS011;30542;47.928;2.138;2022-12-01T13:52:48;6.68;;;5.50;;
44824;SDS011;30542;47.928;2.138;2022-12-01T13:58:16;5.70;;;5.10;;
44824;SDS011;30542;47.928;2.138;2022-12-01T14:08:20;5.80;;;5.22;;
44824;SDS011;30542;47.928;2.138;2022-12-01T14:13:22;5.82;;;5.10;;
44824;SDS011;30542;47.928;2.138;2022-12-01T14:18:34;6.10;;;5.50;;
44824;SDS011;30542;47.928;2.138;2022-12-01T14:34:02;5.47;;;4.90;;
44824;SDS011;30542;47.928;2.138;2022-12-01T14:39:11;5.82;;;5.32;;
44824;SDS011;30542;47.928;2.138;2022-12-01T14:50:00;6.07;;;5.15;;
44824;SDS011;30542;47.928;2.138;2022-12-01T14:55:13;5.28;;;4.78;;
44824;SDS011;30542;47.928;2.138;2022-12-01T15:00:18;5.65;;;4.97;;
44824;SDS011;30542;47.928;2.138;2022-12-01T15:05:22;6.68;;;5.03;;
44824;SDS011;30542;47.928;2.138;2022-12-01T15:10:30;6.07;;;5.45;;
44824;SDS011;30542;47.928;2.138;2022-12-01T15:15:34;7.20;;;5.65;;
44824;SDS011;30542;47.928;2.138;2022-12-01T15:20:36;6.00;;;5.00;;
44824;SDS011;30542;47.928;2.138;2022-12-01T15:25:40;4.90;;;4.45;;
44824;SDS011;30542;47.928;2.138;2022-12-01T15:30:43;8.38;;;5.25;;
44824;SDS011;30542;47.928;2.138;2022-12-01T15:35:49;7.53;;;5.03;;
44824;SDS011;30542;47.928;2.138;2022-12-01T15:40:50;6.13;;;5.28;;
44824;SDS011;30542;47.928;2.138;2022-12-01T15:45:56;5.10;;;4.60;;
44824;SDS011;30542;47.928;2.138;2022-12-01T15:51:24;4.85;;;4.43;;
44824;SDS011;30542;47.928;2.138;2022-12-01T15:56:28;5.47;;;5.05;;
44824;SDS011;30542;47.928;2.138;2022-12-01T16:01:31;4.90;;;4.20;;
44824;SDS011;30542;47.928;2.138;2022-12-01T16:06:35;5.18;;;4.68;;
44824;SDS011;30542;47.928;2.138;2022-12-01T16:11:38;4.70;;;4.20;;
44824;SDS011;30542;47.928;2.138;2022-12-01T16:26:52;5.13;;;4.60;;
44824;SDS011;30542;47.928;2.138;2022-12-01T16:31:57;5.28;;;4.60;;
44824;SDS011;30542;47.928;2.138;2022-12-01T16:37:10;4.80;;;4.40;;
44824;SDS011;30542;47.928;2.138;2022-12-01T16:42:13;5.22;;;4.38;;
44824;SDS011;30542;47.928;2.138;2022-12-01T16:52:19;4.82;;;4.40;;
44824;SDS011;30542;47.928;2.138;2022-12-01T16:57:20;4.77;;;4.37;;
44824;SDS011;30542;47.928;2.138;2022-12-01T17:02:20;4.95;;;4.47;;
44824;SDS011;30542;47.928;2.138;2022-12-01T17:07:21;4.47;;;4.07;;
44824;SDS011;30542;47.928;2.138;2022-12-01T17:12:21;4.33;;;3.93;;
44824;SDS011;30542;47.928;2.138;2022-12-01T17:17:25;4.82;;;4.43;;
44824;SDS011;30542;47.928;2.138;2022-12-01T17:22:27;4.75;;;4.35;;
44824;SDS011;30542;47.928;2.138;2022-12-01T17:27:27;4.47;;;4.07;;
44824;SDS011;30542;47.928;2.138;2022-12-01T17:32:30;4.78;;;4.30;;
44824;SDS011;30542;47.928;2.138;2022-12-01T17:37:31;4.70;;;4.30;;
44824;SDS011;30542;47.928;2.138;2022-12-01T17:42:31;5.27;;;4.40;;
44824;SDS011;30542;47.928;2.138;2022-12-01T17:47:32;5.15;;;4.45;;
44824;SDS011;30542;47.928;2.138;2022-12-01T17:52:33;5.40;;;4.90;;
44824;SDS011;30542;47.928;2.138;2022-12-01T17:57:33;4.90;;;4.50;;
44824;SDS011;30542;47.928;2.138;2022-12-01T18:02:34;5.43;;;4.93;;
44824;SDS011;30542;47.928;2.138;2022-12-01T18:07:34;5.70;;;5.10;;
44824;SDS011;30542;47.928;2.138;2022-12-01T18:12:35;5.10;;;4.60;;
44824;SDS011;30542;47.928;2.138;2022-12-01T18:17:35;5.73;;;4.90;;
44824;SDS011;30542;47.928;2.138;2022-12-01T18:22:35;5.40;;;4.90;;
44824;SDS011;30542;47.928;2.138;2022-12-01T18:27:36;6.43;;;5.07;;
44824;SDS011;30542;47.928;2.138;2022-12-01T18:32:36;20.37;;;11.73;;
44824;SDS011;30542;47.928;2.138;2022-12-01T18:37:37;63.03;;;25.57;;
44824;SDS011;30542;47.928;2.138;2022-12-01T18:42:39;49.17;;;21.52;;
44824;SDS011;30542;47.928;2.138;2022-12-01T18:47:39;44.80;;;19.33;;
44824;SDS011;30542;47.928;2.138;2022-12-01T18:52:39;34.00;;;15.67;;
44824;SDS011;30542;47.928;2.138;2022-12-01T18:57:40;25.35;;;13.52;;
44824;SDS011;30542;47.928;2.138;2022-12-01T19:02:40;24.30;;;12.03;;
44824;SDS011;30542;47.928;2.138;2022-12-01T19:07:41;23.70;;;12.17;;
44824;SDS011;30542;47.928;2.138;2022-12-01T19:12:41;19.10;;;11.37;;
44824;SDS011;30542;47.928;2.138;2022-12-01T19:17:41;17.35;;;10.20;;
44824;SDS011;30542;47.928;2.138;2022-12-01T19:22:42;20.77;;;10.20;;
44824;SDS011;30542;47.928;2.138;2022-12-01T19:27:42;17.70;;;9.87;;
44824;SDS011;30542;47.928;2.138;2022-12-01T19:32:43;14.68;;;9.25;;
44824;SDS011;30542;47.928;2.138;2022-12-01T19:37:43;14.60;;;9.43;;
44824;SDS011;30542;47.928;2.138;2022-12-01T19:42:44;14.95;;;8.98;;
44824;SDS011;30542;47.928;2.138;2022-12-01T19:47:45;12.77;;;8.87;;
44824;SDS011;30542;47.928;2.138;2022-12-01T19:52:45;11.40;;;7.80;;
44824;SDS011;30542;47.928;2.138;2022-12-01T19:57:49;12.37;;;8.27;;
44824;SDS011;30542;47.928;2.138;2022-12-01T20:02:50;12.27;;;8.23;;
44824;SDS011;30542;47.928;2.138;2022-12-01T20:07:51;11.07;;;8.45;;
44824;SDS011;30542;47.928;2.138;2022-12-01T20:12:51;11.90;;;8.17;;
44824;SDS011;30542;47.928;2.138;2022-12-01T20:17:52;11.63;;;8.48;;
44824;SDS011;30542;47.928;2.138;2022-12-01T20:22:52;9.90;;;8.10;;
44824;SDS011;30542;47.928;2.138;2022-12-01T20:27:53;9.07;;;7.93;;
44824;SDS011;30542;47.928;2.138;2022-12-01T20:32:53;8.93;;;7.22;;
44824;SDS011;30542;47.928;2.138;2022-12-01T20:37:54;9.23;;;7.07;;
44824;SDS011;30542;47.928;2.138;2022-12-01T20:42:54;9.73;;;7.40;;
44824;SDS011;30542;47.928;2.138;2022-12-01T20:47:54;11.10;;;7.13;;
44824;SDS011;30542;47.928;2.138;2022-12-01T20:52:55;8.50;;;6.87;;
44824;SDS011;30542;47.928;2.138;2022-12-01T20:57:55;8.70;;;6.80;;
44824;SDS011;30542;47.928;2.138;2022-12-01T21:02:55;9.63;;;6.87;;
44824;SDS011;30542;47.928;2.138;2022-12-01T21:07:56;11.00;;;7.20;;
44824;SDS011;30542;47.928;2.138;2022-12-01T21:12:57;8.68;;;6.80;;
44824;SDS011;30542;47.928;2.138;2022-12-01T21:18:25;7.55;;;6.60;;
44824;SDS011;30542;47.928;2.138;2022-12-01T21:23:32;7.68;;;6.93;;
44824;SDS011;30542;47.928;2.138;2022-12-01T21:28:34;8.70;;;7.65;;
44824;SDS011;30542;47.928;2.138;2022-12-01T21:33:36;8.25;;;7.13;;
44824;SDS011;30542;47.928;2.138;2022-12-01T21:38:38;8.80;;;7.72;;
44824;SDS011;30542;47.928;2.138;2022-12-01T21:43:38;10.50;;;7.75;;
44824;SDS011;30542;47.928;2.138;2022-12-01T21:48:39;8.03;;;7.23;;
44824;SDS011;30542;47.928;2.138;2022-12-01T21:53:40;7.57;;;6.78;;
44824;SDS011;30542;47.928;2.138;2022-12-01T21:58:40;8.83;;;7.87;;
44824;SDS011;30542;47.928;2.138;2022-12-01T22:03:43;8.27;;;7.32;;
44824;SDS011;30542;47.928;2.138;2022-12-01T22:08:45;9.77;;;7.93;;
44824;SDS011;30542;47.928;2.138;2022-12-01T22:13:51;8.35;;;7.05;;
44824;SDS011;30542;47.928;2.138;2022-12-01T22:18:54;8.23;;;7.43;;
44824;SDS011;30542;47.928;2.138;2022-12-01T22:23:58;7.75;;;6.97;;
44824;SDS011;30542;47.928;2.138;2022-12-01T22:29:07;9.20;;;7.67;;
44824;SDS011;30542;47.928;2.138;2022-12-01T22:34:20;8.55;;;7.38;;
44824;SDS011;30542;47.928;2.138;2022-12-01T22:39:24;7.90;;;7.10;;
44824;SDS011;30542;47.928;2.138;2022-12-01T22:44:29;8.82;;;7.40;;
44824;SDS011;30542;47.928;2.138;2022-12-01T22:49:30;8.02;;;7.00;;
44824;SDS011;30542;47.928;2.138;2022-12-01T22:54:36;8.33;;;6.93;;
44824;SDS011;30542;47.928;2.138;2022-12-01T22:59:39;7.40;;;6.03;;
44824;SDS011;30542;47.928;2.138;2022-12-01T23:04:42;7.97;;;7.18;;
44824;SDS011;30542;47.928;2.138;2022-12-01T23:09:43;7.30;;;6.60;;
44824;SDS011;30542;47.928;2.138;2022-12-01T23:14:45;7.60;;;6.80;;
44824;SDS011;30542;47.928;2.138;2022-12-01T23:19:52;7.10;;;6.40;;
44824;SDS011;30542;47.928;2.138;2022-12-01T23:25:11;7.53;;;6.78;;
44824;SDS011;30542;47.928;2.138;2022-12-01T23:30:14;7.00;;;6.30;;
44824;SDS011;30542;47.928;2.138;2022-12-01T23:35:17;7.00;;;6.20;;
44824;SDS011;30542;47.928;2.138;2022-12-01T23:45:32;7.00;;;6.25;;
44824;SDS011;30542;47.928;2.138;2022-12-01T23:50:32;7.23;;;6.37;;
44824;SDS011;30542;47.928;2.138;2022-12-01T23:55:32;6.40;;;5.80;;
